sensor_id;sensor_type;location;lat;lon;timestamp;temperature;humidity
25046;DHT22;13044;49.304;12.840;2023-09-30T00:00:10;18.60;99.90
25046;DHT22;13044;49.304;12.840;2023-09-30T00:02:38;18.60;99.90
25046;DHT22;13044;49.304;12.840;2023-09-30T00:05:05;18.50;99.90
25046;DHT22;13044;49.304;12.840;2023-09-30T00:07:33;18.50;99.90
25046;DHT22;13044;49.304;12.840;2023-09-30T00:10:00;18.50;99.90
25046;DHT22;13044;49.304;12.840;2023-09-30T00:12:27;18.50;99.90
25046;DHT22;13044;49.304;12.840;2023-09-30T00:14:54;18.40;99.90
25046;DHT22;13044;49.304;12.840;2023-09-30T00:17:21;18.40;99.90
25046;DHT22;13044;49.304;12.840;2023-09-30T00:19:48;18.30;99.90
25046;DHT22;13044;49.304;12.840;2023-09-30T00:22:15;18.30;99.90
25046;DHT22;13044;49.304;12.840;2023-09-30T00:24:42;18.20;99.90
25046;DHT22;13044;49.304;12.840;2023-09-30T00:27:09;18.10;99.90
25046;DHT22;13044;49.304;12.840;2023-09-30T00:29:36;18.10;99.90
25046;DHT22;13044;49.304;12.840;2023-09-30T00:32:04;18.10;99.90
25046;DHT22;13044;49.304;12.840;2023-09-30T00:34:37;18.10;99.90
25046;DHT22;13044;49.304;12.840;2023-09-30T00:37:04;18.10;99.90
25046;DHT22;13044;49.304;12.840;2023-09-30T00:39:32;18.00;99.90
25046;DHT22;13044;49.304;12.840;2023-09-30T00:41:59;18.00;99.90
25046;DHT22;13044;49.304;12.840;2023-09-30T00:44:26;18.00;99.90
25046;DHT22;13044;49.304;12.840;2023-09-30T00:46:54;18.00;99.90
25046;DHT22;13044;49.304;12.840;2023-09-30T00:49:24;18.00;99.90
25046;DHT22;13044;49.304;12.840;2023-09-30T00:51:52;18.00;99.90
25046;DHT22;13044;49.304;12.840;2023-09-30T00:54:23;17.90;99.90
25046;DHT22;13044;49.304;12.840;2023-09-30T00:56:52;17.90;99.90
25046;DHT22;13044;49.304;12.840;2023-09-30T00:59:23;17.90;99.90
25046;DHT22;13044;49.304;12.840;2023-09-30T01:01:51;17.90;99.90
25046;DHT22;13044;49.304;12.840;2023-09-30T01:04:19;17.90;99.90
25046;DHT22;13044;49.304;12.840;2023-09-30T01:06:47;17.90;99.90
25046;DHT22;13044;49.304;12.840;2023-09-30T01:09:14;17.90;99.90
25046;DHT22;13044;49.304;12.840;2023-09-30T01:11:41;18.00;99.90
25046;DHT22;13044;49.304;12.840;2023-09-30T01:14:43;18.00;99.90
25046;DHT22;13044;49.304;12.840;2023-09-30T01:17:11;18.00;99.90
25046;DHT22;13044;49.304;12.840;2023-09-30T01:19:41;18.00;99.90
25046;DHT22;13044;49.304;12.840;2023-09-30T01:22:11;17.90;99.90
25046;DHT22;13044;49.304;12.840;2023-09-30T01:24:39;17.90;99.90
25046;DHT22;13044;49.304;12.840;2023-09-30T01:27:10;17.80;99.90
25046;DHT22;13044;49.304;12.840;2023-09-30T01:29:37;17.80;99.90
25046;DHT22;13044;49.304;12.840;2023-09-30T01:32:05;17.70;99.90
25046;DHT22;13044;49.304;12.840;2023-09-30T01:34:36;17.70;99.90
25046;DHT22;13044;49.304;12.840;2023-09-30T01:37:03;17.70;99.90
25046;DHT22;13044;49.304;12.840;2023-09-30T01:39:31;17.80;99.90
25046;DHT22;13044;49.304;12.840;2023-09-30T01:41:59;17.70;99.90
25046;DHT22;13044;49.304;12.840;2023-09-30T01:44:26;17.80;99.90
25046;DHT22;13044;49.304;12.840;2023-09-30T01:46:53;17.80;99.90
25046;DHT22;13044;49.304;12.840;2023-09-30T01:49:20;17.80;99.90
25046;DHT22;13044;49.304;12.840;2023-09-30T01:51:50;17.70;99.90
25046;DHT22;13044;49.304;12.840;2023-09-30T01:54:17;17.70;99.90
25046;DHT22;13044;49.304;12.840;2023-09-30T01:56:44;17.70;99.90
25046;DHT22;13044;49.304;12.840;2023-09-30T01:59:11;17.70;99.90
25046;DHT22;13044;49.304;12.840;2023-09-30T02:01:38;17.60;99.90
25046;DHT22;13044;49.304;12.840;2023-09-30T02:04:05;17.60;99.90
25046;DHT22;13044;49.304;12.840;2023-09-30T02:06:33;17.60;99.90
25046;DHT22;13044;49.304;12.840;2023-09-30T02:09:01;17.60;99.90
25046;DHT22;13044;49.304;12.840;2023-09-30T02:11:29;17.60;99.90
25046;DHT22;13044;49.304;12.840;2023-09-30T02:13:56;17.50;99.90
25046;DHT22;13044;49.304;12.840;2023-09-30T02:16:23;17.40;99.90
25046;DHT22;13044;49.304;12.840;2023-09-30T02:18:51;17.30;99.90
25046;DHT22;13044;49.304;12.840;2023-09-30T02:21:18;17.30;99.90
25046;DHT22;13044;49.304;12.840;2023-09-30T02:23:45;17.30;99.90
25046;DHT22;13044;49.304;12.840;2023-09-30T02:26:15;17.30;99.90
25046;DHT22;13044;49.304;12.840;2023-09-30T02:28:42;17.20;99.90
25046;DHT22;13044;49.304;12.840;2023-09-30T02:31:09;17.20;99.90
25046;DHT22;13044;49.304;12.840;2023-09-30T02:33:36;17.10;99.90
25046;DHT22;13044;49.304;12.840;2023-09-30T02:36:07;17.10;99.90
25046;DHT22;13044;49.304;12.840;2023-09-30T02:38:35;17.10;99.90
25046;DHT22;13044;49.304;12.840;2023-09-30T02:41:05;17.10;99.90
25046;DHT22;13044;49.304;12.840;2023-09-30T02:43:32;17.10;99.90
25046;DHT22;13044;49.304;12.840;2023-09-30T02:45:59;17.00;99.90
25046;DHT22;13044;49.304;12.840;2023-09-30T02:48:26;16.90;99.90
25046;DHT22;13044;49.304;12.840;2023-09-30T02:50:53;16.90;99.90
25046;DHT22;13044;49.304;12.840;2023-09-30T02:53:21;16.90;99.90
25046;DHT22;13044;49.304;12.840;2023-09-30T02:55:49;16.90;99.90
25046;DHT22;13044;49.304;12.840;2023-09-30T02:58:18;16.90;99.90
25046;DHT22;13044;49.304;12.840;2023-09-30T03:00:48;16.90;99.90
25046;DHT22;13044;49.304;12.840;2023-09-30T03:03:16;16.90;99.90
25046;DHT22;13044;49.304;12.840;2023-09-30T03:05:43;16.90;99.90
25046;DHT22;13044;49.304;12.840;2023-09-30T03:08:12;16.80;99.90
25046;DHT22;13044;49.304;12.840;2023-09-30T03:10:39;16.80;99.90
25046;DHT22;13044;49.304;12.840;2023-09-30T03:13:07;16.90;99.90
25046;DHT22;13044;49.304;12.840;2023-09-30T03:15:36;16.90;99.90
25046;DHT22;13044;49.304;12.840;2023-09-30T03:18:04;16.90;99.90
25046;DHT22;13044;49.304;12.840;2023-09-30T03:20:32;17.00;99.90
25046;DHT22;13044;49.304;12.840;2023-09-30T03:22:59;17.00;99.90
25046;DHT22;13044;49.304;12.840;2023-09-30T03:25:26;17.10;99.90
25046;DHT22;13044;49.304;12.840;2023-09-30T03:27:53;17.00;99.90
25046;DHT22;13044;49.304;12.840;2023-09-30T03:30:20;17.10;99.90
25046;DHT22;13044;49.304;12.840;2023-09-30T03:32:47;17.00;99.90
25046;DHT22;13044;49.304;12.840;2023-09-30T03:35:15;17.00;99.90
25046;DHT22;13044;49.304;12.840;2023-09-30T03:37:45;17.00;99.90
25046;DHT22;13044;49.304;12.840;2023-09-30T03:43:48;16.90;99.90
25046;DHT22;13044;49.304;12.840;2023-09-30T03:46:16;17.00;99.90
25046;DHT22;13044;49.304;12.840;2023-09-30T03:48:43;17.00;99.90
25046;DHT22;13044;49.304;12.840;2023-09-30T03:51:12;16.90;99.90
25046;DHT22;13044;49.304;12.840;2023-09-30T03:53:44;17.00;99.90
25046;DHT22;13044;49.304;12.840;2023-09-30T03:56:12;17.00;99.90
25046;DHT22;13044;49.304;12.840;2023-09-30T03:58:43;17.00;99.90
25046;DHT22;13044;49.304;12.840;2023-09-30T04:01:11;17.00;99.90
25046;DHT22;13044;49.304;12.840;2023-09-30T04:03:40;17.00;99.90
25046;DHT22;13044;49.304;12.840;2023-09-30T04:06:07;16.90;99.90
25046;DHT22;13044;49.304;12.840;2023-09-30T04:08:35;17.00;99.90
25046;DHT22;13044;49.304;12.840;2023-09-30T04:11:02;17.00;99.90
25046;DHT22;13044;49.304;12.840;2023-09-30T04:13:29;17.00;99.90
25046;DHT22;13044;49.304;12.840;2023-09-30T04:15:56;17.10;99.90
25046;DHT22;13044;49.304;12.840;2023-09-30T04:18:26;17.10;99.90
25046;DHT22;13044;49.304;12.840;2023-09-30T04:20:54;17.00;99.90
25046;DHT22;13044;49.304;12.840;2023-09-30T04:23:21;17.10;99.90
25046;DHT22;13044;49.304;12.840;2023-09-30T04:25:48;17.10;99.90
25046;DHT22;13044;49.304;12.840;2023-09-30T04:28:16;17.00;99.90
25046;DHT22;13044;49.304;12.840;2023-09-30T04:30:47;17.00;99.90
25046;DHT22;13044;49.304;12.840;2023-09-30T04:33:17;17.10;99.90
25046;DHT22;13044;49.304;12.840;2023-09-30T04:35:44;17.10;99.90
25046;DHT22;13044;49.304;12.840;2023-09-30T04:38:12;17.10;99.90
25046;DHT22;13044;49.304;12.840;2023-09-30T04:40:39;17.10;99.90
25046;DHT22;13044;49.304;12.840;2023-09-30T04:43:06;17.00;99.90
25046;DHT22;13044;49.304;12.840;2023-09-30T04:45:33;17.10;99.90
25046;DHT22;13044;49.304;12.840;2023-09-30T04:48:00;17.10;99.90
25046;DHT22;13044;49.304;12.840;2023-09-30T04:50:30;17.10;99.90
25046;DHT22;13044;49.304;12.840;2023-09-30T04:52:57;17.20;99.90
25046;DHT22;13044;49.304;12.840;2023-09-30T04:55:25;17.20;99.90
25046;DHT22;13044;49.304;12.840;2023-09-30T04:57:52;17.20;99.90
25046;DHT22;13044;49.304;12.840;2023-09-30T05:00:20;17.10;99.90
25046;DHT22;13044;49.304;12.840;2023-09-30T05:02:52;17.10;99.90
25046;DHT22;13044;49.304;12.840;2023-09-30T05:05:20;17.10;99.90
25046;DHT22;13044;49.304;12.840;2023-09-30T05:07:47;17.20;99.90
25046;DHT22;13044;49.304;12.840;2023-09-30T05:10:15;17.20;99.90
25046;DHT22;13044;49.304;12.840;2023-09-30T05:12:43;17.10;99.90
25046;DHT22;13044;49.304;12.840;2023-09-30T05:15:15;17.10;99.90
25046;DHT22;13044;49.304;12.840;2023-09-30T05:17:43;17.00;99.90
25046;DHT22;13044;49.304;12.840;2023-09-30T05:20:11;17.10;99.90
25046;DHT22;13044;49.304;12.840;2023-09-30T05:22:39;17.00;99.90
25046;DHT22;13044;49.304;12.840;2023-09-30T05:25:12;17.00;99.90
25046;DHT22;13044;49.304;12.840;2023-09-30T05:27:43;17.10;99.90
25046;DHT22;13044;49.304;12.840;2023-09-30T05:30:11;17.10;99.90
25046;DHT22;13044;49.304;12.840;2023-09-30T05:32:38;17.10;99.90
25046;DHT22;13044;49.304;12.840;2023-09-30T05:35:06;17.10;99.90
25046;DHT22;13044;49.304;12.840;2023-09-30T05:37:44;17.10;99.90
25046;DHT22;13044;49.304;12.840;2023-09-30T05:40:14;17.10;99.90
25046;DHT22;13044;49.304;12.840;2023-09-30T05:42:56;17.10;99.90
25046;DHT22;13044;49.304;12.840;2023-09-30T05:45:27;17.10;99.90
25046;DHT22;13044;49.304;12.840;2023-09-30T05:47:55;17.10;99.90
25046;DHT22;13044;49.304;12.840;2023-09-30T05:50:24;17.10;99.90
25046;DHT22;13044;49.304;12.840;2023-09-30T05:52:55;17.20;99.90
25046;DHT22;13044;49.304;12.840;2023-09-30T05:55:23;17.20;99.90
25046;DHT22;13044;49.304;12.840;2023-09-30T05:57:53;17.20;99.90
25046;DHT22;13044;49.304;12.840;2023-09-30T06:00:21;17.20;99.90
25046;DHT22;13044;49.304;12.840;2023-09-30T06:02:58;17.20;99.90
25046;DHT22;13044;49.304;12.840;2023-09-30T06:05:27;17.20;99.90
25046;DHT22;13044;49.304;12.840;2023-09-30T06:07:56;17.20;99.90
25046;DHT22;13044;49.304;12.840;2023-09-30T06:10:23;17.20;99.90
25046;DHT22;13044;49.304;12.840;2023-09-30T06:12:52;17.20;99.90
25046;DHT22;13044;49.304;12.840;2023-09-30T06:15:24;17.30;99.90
25046;DHT22;13044;49.304;12.840;2023-09-30T06:22:01;17.40;99.90
25046;DHT22;13044;49.304;12.840;2023-09-30T06:24:33;17.40;99.90
25046;DHT22;13044;49.304;12.840;2023-09-30T06:47:55;17.30;99.90
25046;DHT22;13044;49.304;12.840;2023-09-30T06:50:22;17.30;99.90
25046;DHT22;13044;49.304;12.840;2023-09-30T06:52:50;17.30;99.90
25046;DHT22;13044;49.304;12.840;2023-09-30T06:55:17;17.30;99.90
25046;DHT22;13044;49.304;12.840;2023-09-30T06:57:44;17.30;99.90
25046;DHT22;13044;49.304;12.840;2023-09-30T07:00:13;17.40;99.90
25046;DHT22;13044;49.304;12.840;2023-09-30T07:02:41;17.40;99.90
25046;DHT22;13044;49.304;12.840;2023-09-30T07:05:10;17.40;99.90
25046;DHT22;13044;49.304;12.840;2023-09-30T07:07:39;17.50;99.90
25046;DHT22;13044;49.304;12.840;2023-09-30T07:10:07;17.50;99.90
25046;DHT22;13044;49.304;12.840;2023-09-30T07:12:35;17.50;99.90
25046;DHT22;13044;49.304;12.840;2023-09-30T07:15:04;17.50;99.90
25046;DHT22;13044;49.304;12.840;2023-09-30T07:17:32;17.40;99.90
25046;DHT22;13044;49.304;12.840;2023-09-30T07:20:01;17.50;99.90
25046;DHT22;13044;49.304;12.840;2023-09-30T07:22:29;17.50;99.90
25046;DHT22;13044;49.304;12.840;2023-09-30T07:24:59;17.60;99.90
25046;DHT22;13044;49.304;12.840;2023-09-30T07:27:26;17.60;99.90
25046;DHT22;13044;49.304;12.840;2023-09-30T07:29:54;17.60;99.90
25046;DHT22;13044;49.304;12.840;2023-09-30T07:32:21;17.70;99.90
25046;DHT22;13044;49.304;12.840;2023-09-30T07:34:51;17.70;99.90
25046;DHT22;13044;49.304;12.840;2023-09-30T07:37:18;17.80;99.90
25046;DHT22;13044;49.304;12.840;2023-09-30T07:39:47;17.80;99.90
25046;DHT22;13044;49.304;12.840;2023-09-30T07:42:14;17.80;99.90
25046;DHT22;13044;49.304;12.840;2023-09-30T07:44:41;17.90;99.90
25046;DHT22;13044;49.304;12.840;2023-09-30T07:47:08;17.90;99.90
25046;DHT22;13044;49.304;12.840;2023-09-30T07:49:39;17.90;99.90
25046;DHT22;13044;49.304;12.840;2023-09-30T07:52:05;18.00;99.90
25046;DHT22;13044;49.304;12.840;2023-09-30T07:54:32;18.00;99.90
25046;DHT22;13044;49.304;12.840;2023-09-30T07:56:59;18.00;99.90
25046;DHT22;13044;49.304;12.840;2023-09-30T07:59:27;18.10;99.90
25046;DHT22;13044;49.304;12.840;2023-09-30T08:01:54;18.10;99.90
25046;DHT22;13044;49.304;12.840;2023-09-30T08:04:21;18.20;99.90
25046;DHT22;13044;49.304;12.840;2023-09-30T08:06:49;18.10;99.90
25046;DHT22;13044;49.304;12.840;2023-09-30T08:09:17;18.10;99.90
25046;DHT22;13044;49.304;12.840;2023-09-30T08:11:45;18.10;99.90
25046;DHT22;13044;49.304;12.840;2023-09-30T08:14:12;18.10;99.90
25046;DHT22;13044;49.304;12.840;2023-09-30T08:16:39;18.00;99.90
25046;DHT22;13044;49.304;12.840;2023-09-30T08:19:06;18.10;99.90
25046;DHT22;13044;49.304;12.840;2023-09-30T08:21:33;18.10;99.90
25046;DHT22;13044;49.304;12.840;2023-09-30T08:24:02;18.10;99.90
25046;DHT22;13044;49.304;12.840;2023-09-30T08:26:29;18.30;99.90
25046;DHT22;13044;49.304;12.840;2023-09-30T08:28:56;18.40;99.90
25046;DHT22;13044;49.304;12.840;2023-09-30T08:31:23;18.50;99.90
25046;DHT22;13044;49.304;12.840;2023-09-30T08:33:51;18.60;99.90
25046;DHT22;13044;49.304;12.840;2023-09-30T08:36:18;18.60;99.90
25046;DHT22;13044;49.304;12.840;2023-09-30T08:38:46;18.60;99.90
25046;DHT22;13044;49.304;12.840;2023-09-30T08:41:40;18.50;99.90
25046;DHT22;13044;49.304;12.840;2023-09-30T08:44:07;18.40;99.90
25046;DHT22;13044;49.304;12.840;2023-09-30T08:46:34;18.40;99.90
25046;DHT22;13044;49.304;12.840;2023-09-30T08:49:04;18.40;99.90
25046;DHT22;13044;49.304;12.840;2023-09-30T08:51:33;18.40;99.90
25046;DHT22;13044;49.304;12.840;2023-09-30T08:54:01;18.30;99.90
25046;DHT22;13044;49.304;12.840;2023-09-30T08:56:31;18.30;99.90
25046;DHT22;13044;49.304;12.840;2023-09-30T08:59:03;18.20;99.90
25046;DHT22;13044;49.304;12.840;2023-09-30T09:01:31;18.30;99.90
25046;DHT22;13044;49.304;12.840;2023-09-30T09:03:59;18.20;99.90
25046;DHT22;13044;49.304;12.840;2023-09-30T09:06:26;18.20;99.90
25046;DHT22;13044;49.304;12.840;2023-09-30T09:09:16;18.20;99.90
25046;DHT22;13044;49.304;12.840;2023-09-30T09:11:45;18.20;99.90
25046;DHT22;13044;49.304;12.840;2023-09-30T09:14:13;18.10;99.90
25046;DHT22;13044;49.304;12.840;2023-09-30T09:16:55;18.10;99.90
25046;DHT22;13044;49.304;12.840;2023-09-30T09:31:41;17.80;99.90
25046;DHT22;13044;49.304;12.840;2023-09-30T09:34:14;17.70;99.90
25046;DHT22;13044;49.304;12.840;2023-09-30T09:36:43;17.60;99.90
25046;DHT22;13044;49.304;12.840;2023-09-30T09:39:11;17.60;99.90
25046;DHT22;13044;49.304;12.840;2023-09-30T09:41:53;17.50;99.90
25046;DHT22;13044;49.304;12.840;2023-09-30T09:44:21;17.50;99.90
25046;DHT22;13044;49.304;12.840;2023-09-30T09:46:49;17.50;99.90
25046;DHT22;13044;49.304;12.840;2023-09-30T09:49:18;17.50;99.90
25046;DHT22;13044;49.304;12.840;2023-09-30T09:51:46;17.50;99.90
25046;DHT22;13044;49.304;12.840;2023-09-30T09:54:15;17.50;99.90
25046;DHT22;13044;49.304;12.840;2023-09-30T09:56:44;17.50;99.90
25046;DHT22;13044;49.304;12.840;2023-09-30T09:59:13;17.40;99.90
25046;DHT22;13044;49.304;12.840;2023-09-30T10:01:41;17.40;99.90
25046;DHT22;13044;49.304;12.840;2023-09-30T10:04:12;17.50;99.90
25046;DHT22;13044;49.304;12.840;2023-09-30T10:06:44;17.40;99.90
25046;DHT22;13044;49.304;12.840;2023-09-30T10:09:15;17.40;99.90
25046;DHT22;13044;49.304;12.840;2023-09-30T10:11:44;17.40;99.90
25046;DHT22;13044;49.304;12.840;2023-09-30T10:14:32;17.30;99.90
25046;DHT22;13044;49.304;12.840;2023-09-30T10:17:00;17.30;99.90
25046;DHT22;13044;49.304;12.840;2023-09-30T10:19:28;17.30;99.90
25046;DHT22;13044;49.304;12.840;2023-09-30T10:24:51;17.40;99.90
25046;DHT22;13044;49.304;12.840;2023-09-30T10:35:42;17.40;99.90
25046;DHT22;13044;49.304;12.840;2023-09-30T10:40:49;17.30;99.90
25046;DHT22;13044;49.304;12.840;2023-09-30T10:43:45;17.30;99.90
25046;DHT22;13044;49.304;12.840;2023-09-30T10:48:54;17.30;99.90
25046;DHT22;13044;49.304;12.840;2023-09-30T10:51:22;17.30;99.90
25046;DHT22;13044;49.304;12.840;2023-09-30T10:53:53;17.30;99.90
25046;DHT22;13044;49.304;12.840;2023-09-30T11:12:19;17.40;99.90
25046;DHT22;13044;49.304;12.840;2023-09-30T11:14:46;17.20;99.90
25046;DHT22;13044;49.304;12.840;2023-09-30T11:17:13;17.10;99.90
25046;DHT22;13044;49.304;12.840;2023-09-30T11:19:47;17.10;99.90
25046;DHT22;13044;49.304;12.840;2023-09-30T11:22:16;17.10;99.90
25046;DHT22;13044;49.304;12.840;2023-09-30T11:24:43;17.20;99.90
25046;DHT22;13044;49.304;12.840;2023-09-30T11:27:10;17.20;99.90
25046;DHT22;13044;49.304;12.840;2023-09-30T11:29:37;17.20;99.90
25046;DHT22;13044;49.304;12.840;2023-09-30T11:32:04;17.20;99.90
25046;DHT22;13044;49.304;12.840;2023-09-30T11:34:35;17.20;99.90
25046;DHT22;13044;49.304;12.840;2023-09-30T11:37:04;17.20;99.90
25046;DHT22;13044;49.304;12.840;2023-09-30T11:39:37;17.30;99.90
25046;DHT22;13044;49.304;12.840;2023-09-30T11:42:14;17.30;99.90
25046;DHT22;13044;49.304;12.840;2023-09-30T11:44:47;17.30;99.90
25046;DHT22;13044;49.304;12.840;2023-09-30T11:47:15;17.30;99.90
25046;DHT22;13044;49.304;12.840;2023-09-30T11:49:43;17.20;99.90
25046;DHT22;13044;49.304;12.840;2023-09-30T11:52:12;17.20;99.90
25046;DHT22;13044;49.304;12.840;2023-09-30T11:54:45;17.30;99.90
25046;DHT22;13044;49.304;12.840;2023-09-30T11:57:13;17.40;99.90
25046;DHT22;13044;49.304;12.840;2023-09-30T11:59:45;17.40;99.90
25046;DHT22;13044;49.304;12.840;2023-09-30T12:02:15;17.50;99.90
25046;DHT22;13044;49.304;12.840;2023-09-30T12:04:45;17.50;99.90
25046;DHT22;13044;49.304;12.840;2023-09-30T12:07:14;17.50;99.90
25046;DHT22;13044;49.304;12.840;2023-09-30T12:09:42;17.50;99.90
25046;DHT22;13044;49.304;12.840;2023-09-30T12:12:09;17.50;99.90
25046;DHT22;13044;49.304;12.840;2023-09-30T12:14:38;17.50;99.90
25046;DHT22;13044;49.304;12.840;2023-09-30T12:17:05;17.50;99.90
25046;DHT22;13044;49.304;12.840;2023-09-30T12:19:32;17.60;99.90
25046;DHT22;13044;49.304;12.840;2023-09-30T12:21:59;17.60;99.90
25046;DHT22;13044;49.304;12.840;2023-09-30T12:24:26;17.60;99.90
25046;DHT22;13044;49.304;12.840;2023-09-30T12:26:54;17.50;99.90
25046;DHT22;13044;49.304;12.840;2023-09-30T12:29:22;17.50;99.90
25046;DHT22;13044;49.304;12.840;2023-09-30T12:31:52;17.50;99.90
25046;DHT22;13044;49.304;12.840;2023-09-30T12:34:21;17.50;99.90
25046;DHT22;13044;49.304;12.840;2023-09-30T12:36:54;17.40;99.90
25046;DHT22;13044;49.304;12.840;2023-09-30T12:39:24;17.40;99.90
25046;DHT22;13044;49.304;12.840;2023-09-30T12:41:53;17.50;99.90
25046;DHT22;13044;49.304;12.840;2023-09-30T12:44:20;17.50;99.90
25046;DHT22;13044;49.304;12.840;2023-09-30T12:46:47;17.50;99.90
25046;DHT22;13044;49.304;12.840;2023-09-30T12:49:14;17.60;99.90
25046;DHT22;13044;49.304;12.840;2023-09-30T12:51:42;17.70;99.90
25046;DHT22;13044;49.304;12.840;2023-09-30T12:54:09;17.80;99.90
25046;DHT22;13044;49.304;12.840;2023-09-30T12:56:37;17.70;99.90
25046;DHT22;13044;49.304;12.840;2023-09-30T12:59:05;17.80;99.90
25046;DHT22;13044;49.304;12.840;2023-09-30T13:01:31;17.80;99.90
25046;DHT22;13044;49.304;12.840;2023-09-30T13:04:02;17.90;99.90
25046;DHT22;13044;49.304;12.840;2023-09-30T13:06:29;17.90;99.90
25046;DHT22;13044;49.304;12.840;2023-09-30T13:08:59;18.00;99.90
25046;DHT22;13044;49.304;12.840;2023-09-30T13:11:26;17.90;99.90
25046;DHT22;13044;49.304;12.840;2023-09-30T13:13:54;18.00;99.90
25046;DHT22;13044;49.304;12.840;2023-09-30T13:16:21;18.00;99.90
25046;DHT22;13044;49.304;12.840;2023-09-30T13:18:49;18.00;99.90
25046;DHT22;13044;49.304;12.840;2023-09-30T13:21:18;17.90;99.90
25046;DHT22;13044;49.304;12.840;2023-09-30T13:23:46;17.80;99.90
25046;DHT22;13044;49.304;12.840;2023-09-30T13:26:13;17.80;99.90
25046;DHT22;13044;49.304;12.840;2023-09-30T13:28:40;17.80;99.90
25046;DHT22;13044;49.304;12.840;2023-09-30T13:31:07;17.70;99.90
25046;DHT22;13044;49.304;12.840;2023-09-30T13:33:34;17.70;99.90
25046;DHT22;13044;49.304;12.840;2023-09-30T13:36:01;17.60;99.90
25046;DHT22;13044;49.304;12.840;2023-09-30T13:38:29;17.60;99.90
25046;DHT22;13044;49.304;12.840;2023-09-30T13:40:56;17.60;99.90
25046;DHT22;13044;49.304;12.840;2023-09-30T13:43:23;17.60;99.90
25046;DHT22;13044;49.304;12.840;2023-09-30T13:48:28;17.60;99.90
25046;DHT22;13044;49.304;12.840;2023-09-30T13:51:03;17.60;99.90
25046;DHT22;13044;49.304;12.840;2023-09-30T13:53:33;17.50;99.90
25046;DHT22;13044;49.304;12.840;2023-09-30T13:56:01;17.50;99.90
25046;DHT22;13044;49.304;12.840;2023-09-30T13:58:28;17.50;99.90
25046;DHT22;13044;49.304;12.840;2023-09-30T14:00:55;17.50;99.90
25046;DHT22;13044;49.304;12.840;2023-09-30T14:03:25;17.60;99.90
25046;DHT22;13044;49.304;12.840;2023-09-30T14:05:53;17.60;99.90
25046;DHT22;13044;49.304;12.840;2023-09-30T14:08:20;17.60;99.90
25046;DHT22;13044;49.304;12.840;2023-09-30T14:10:47;17.50;99.90
25046;DHT22;13044;49.304;12.840;2023-09-30T14:13:16;17.50;99.90
25046;DHT22;13044;49.304;12.840;2023-09-30T14:15:44;17.50;99.90
25046;DHT22;13044;49.304;12.840;2023-09-30T14:18:13;17.40;99.90
25046;DHT22;13044;49.304;12.840;2023-09-30T14:20:41;17.40;99.90
25046;DHT22;13044;49.304;12.840;2023-09-30T14:23:08;17.40;99.90
25046;DHT22;13044;49.304;12.840;2023-09-30T14:25:35;17.40;99.90
25046;DHT22;13044;49.304;12.840;2023-09-30T14:28:02;17.40;99.90
25046;DHT22;13044;49.304;12.840;2023-09-30T14:30:30;17.40;99.90
25046;DHT22;13044;49.304;12.840;2023-09-30T14:32:57;17.40;99.90
25046;DHT22;13044;49.304;12.840;2023-09-30T14:35:24;17.50;99.90
25046;DHT22;13044;49.304;12.840;2023-09-30T14:37:51;17.50;99.90
25046;DHT22;13044;49.304;12.840;2023-09-30T14:40:20;17.50;99.90
25046;DHT22;13044;49.304;12.840;2023-09-30T14:42:48;17.50;99.90
25046;DHT22;13044;49.304;12.840;2023-09-30T14:45:15;17.50;99.90
25046;DHT22;13044;49.304;12.840;2023-09-30T14:47:42;17.40;99.90
25046;DHT22;13044;49.304;12.840;2023-09-30T14:50:10;17.40;99.90
25046;DHT22;13044;49.304;12.840;2023-09-30T14:52:37;17.30;99.90
25046;DHT22;13044;49.304;12.840;2023-09-30T14:55:04;17.30;99.90
25046;DHT22;13044;49.304;12.840;2023-09-30T14:57:31;17.30;99.90
25046;DHT22;13044;49.304;12.840;2023-09-30T14:59:58;17.40;99.90
25046;DHT22;13044;49.304;12.840;2023-09-30T15:02:28;17.40;99.90
25046;DHT22;13044;49.304;12.840;2023-09-30T15:04:55;17.40;99.90
25046;DHT22;13044;49.304;12.840;2023-09-30T15:07:22;17.40;99.90
25046;DHT22;13044;49.304;12.840;2023-09-30T15:09:49;17.40;99.90
25046;DHT22;13044;49.304;12.840;2023-09-30T15:12:17;17.50;99.90
25046;DHT22;13044;49.304;12.840;2023-09-30T15:14:44;17.50;99.90
25046;DHT22;13044;49.304;12.840;2023-09-30T15:17:11;17.50;99.90
25046;DHT22;13044;49.304;12.840;2023-09-30T15:19:38;17.50;99.90
25046;DHT22;13044;49.304;12.840;2023-09-30T15:22:05;17.60;99.90
25046;DHT22;13044;49.304;12.840;2023-09-30T15:24:33;17.60;99.90
25046;DHT22;13044;49.304;12.840;2023-09-30T15:27:01;17.60;99.90
25046;DHT22;13044;49.304;12.840;2023-09-30T15:29:28;17.70;99.90
25046;DHT22;13044;49.304;12.840;2023-09-30T15:31:55;17.80;99.90
25046;DHT22;13044;49.304;12.840;2023-09-30T15:34:22;17.80;99.90
25046;DHT22;13044;49.304;12.840;2023-09-30T15:36:51;17.80;99.90
25046;DHT22;13044;49.304;12.840;2023-09-30T15:39:18;17.90;99.90
25046;DHT22;13044;49.304;12.840;2023-09-30T15:41:45;17.90;99.90
25046;DHT22;13044;49.304;12.840;2023-09-30T15:44:12;17.90;99.90
25046;DHT22;13044;49.304;12.840;2023-09-30T15:46:39;17.80;99.90
25046;DHT22;13044;49.304;12.840;2023-09-30T15:49:06;17.90;99.90
25046;DHT22;13044;49.304;12.840;2023-09-30T15:51:34;17.80;99.90
25046;DHT22;13044;49.304;12.840;2023-09-30T15:54:01;17.80;99.90
25046;DHT22;13044;49.304;12.840;2023-09-30T15:56:28;17.80;99.90
25046;DHT22;13044;49.304;12.840;2023-09-30T15:59:11;17.80;99.90
25046;DHT22;13044;49.304;12.840;2023-09-30T16:01:37;17.80;99.90
25046;DHT22;13044;49.304;12.840;2023-09-30T16:04:05;17.70;99.90
25046;DHT22;13044;49.304;12.840;2023-09-30T16:06:33;17.70;99.90
25046;DHT22;13044;49.304;12.840;2023-09-30T16:09:00;17.60;99.90
25046;DHT22;13044;49.304;12.840;2023-09-30T16:11:27;17.60;99.90
25046;DHT22;13044;49.304;12.840;2023-09-30T16:13:55;17.60;99.90
25046;DHT22;13044;49.304;12.840;2023-09-30T16:16:23;17.60;99.90
25046;DHT22;13044;49.304;12.840;2023-09-30T16:18:50;17.60;99.90
25046;DHT22;13044;49.304;12.840;2023-09-30T16:21:17;17.50;99.90
25046;DHT22;13044;49.304;12.840;2023-09-30T16:23:44;17.50;99.90
25046;DHT22;13044;49.304;12.840;2023-09-30T16:26:13;17.40;99.90
25046;DHT22;13044;49.304;12.840;2023-09-30T16:28:40;17.40;99.90
25046;DHT22;13044;49.304;12.840;2023-09-30T16:31:07;17.40;99.90
25046;DHT22;13044;49.304;12.840;2023-09-30T16:33:34;17.40;99.90
25046;DHT22;13044;49.304;12.840;2023-09-30T16:36:04;17.30;99.90
25046;DHT22;13044;49.304;12.840;2023-09-30T16:38:34;17.30;99.90